createdAt,value
2018-07-21T00:01:42.765Z,92.20
2018-07-21T00:04:11.707Z,92.20
2018-07-21T00:06:40.791Z,92.20
2018-07-21T00:09:12.409Z,92.30
2018-07-21T00:11:42.327Z,92.30
2018-07-21T00:16:39.986Z,92.50
2018-07-21T00:19:08.979Z,92.60
2018-07-21T00:21:37.974Z,92.70
2018-07-21T00:24:06.931Z,92.70
2018-07-21T00:26:41.439Z,92.80
2018-07-21T00:29:10.726Z,92.80
2018-07-21T00:31:39.811Z,93.00
2018-07-21T00:34:09.009Z,93.20
2018-07-21T00:39:09.470Z,93.30
2018-07-21T00:41:39.538Z,93.30
2018-07-21T00:44:09.047Z,93.80
2018-07-21T00:46:38.257Z,93.50
2018-07-21T00:51:36.669Z,93.70
2018-07-21T00:54:05.932Z,93.80
2018-07-21T00:56:34.981Z,94.00
2018-07-21T00:59:04.448Z,94.10
2018-07-21T01:01:33.974Z,94.20
2018-07-21T01:04:03.751Z,94.20
2018-07-21T01:06:32.746Z,94.40
2018-07-21T01:09:02.150Z,94.50
2018-07-21T01:11:31.926Z,94.50
2018-07-21T01:14:01.320Z,94.50
2018-07-21T01:16:30.587Z,94.40
2018-07-21T01:18:59.805Z,94.40
2018-07-21T01:21:29.113Z,94.30
2018-07-21T01:23:58.582Z,94.40
2018-07-21T01:26:27.969Z,94.50
2018-07-21T01:28:56.923Z,94.70
2018-07-21T01:31:26.770Z,94.60
2018-07-21T01:33:56.211Z,94.60
2018-07-21T01:36:26.007Z,94.60
2018-07-21T01:38:55.431Z,94.50
2018-07-21T01:41:25.655Z,94.50
2018-07-21T01:43:55.073Z,94.50
2018-07-21T01:46:24.391Z,94.60
2018-07-21T01:48:53.939Z,94.50
2018-07-21T01:51:23.094Z,94.60
2018-07-21T01:53:52.175Z,94.50
2018-07-21T01:56:21.747Z,94.60
2018-07-21T01:58:51.020Z,94.60
2018-07-21T02:01:20.779Z,94.50
2018-07-21T02:03:50.221Z,94.50
2018-07-21T02:06:19.254Z,94.50
2018-07-21T02:08:49.142Z,94.50
2018-07-21T02:11:19.164Z,94.50
2018-07-21T02:13:48.429Z,94.80
2018-07-21T02:16:17.448Z,94.70
2018-07-21T02:18:46.452Z,94.70
2018-07-21T02:21:15.902Z,94.70
2018-07-21T02:23:45.270Z,94.80
2018-07-21T02:26:14.359Z,95.10
2018-07-21T02:28:49.647Z,95.40
2018-07-21T02:31:18.800Z,95.40
2018-07-21T02:33:47.785Z,95.30
2018-07-21T02:36:16.823Z,95.40
2018-07-21T02:38:46.185Z,95.20
2018-07-21T02:41:15.286Z,95.20
2018-07-21T02:43:44.495Z,95.10
2018-07-21T02:46:13.504Z,95.10
2018-07-21T02:48:42.595Z,95.10
2018-07-21T02:51:11.660Z,95.10
2018-07-21T02:53:40.741Z,95.20
2018-07-21T02:56:09.775Z,95.30
2018-07-21T02:58:38.785Z,95.40
2018-07-21T03:01:08.183Z,95.70
2018-07-21T03:03:37.288Z,95.80
2018-07-21T03:06:07.684Z,95.90
2018-07-21T03:08:36.743Z,96.20
2018-07-21T03:11:06.144Z,96.60
2018-07-21T03:13:35.291Z,97.00
2018-07-21T03:16:04.318Z,97.40
2018-07-21T03:18:33.472Z,97.60
2018-07-21T03:21:02.496Z,97.80
2018-07-21T03:23:32.077Z,97.70
2018-07-21T03:26:01.188Z,97.80
2018-07-21T03:28:30.166Z,97.90
2018-07-21T03:30:59.829Z,98.00
2018-07-21T03:33:28.967Z,98.00
2018-07-21T03:35:58.022Z,98.00
2018-07-21T03:38:27.239Z,97.80
2018-07-21T03:43:25.132Z,97.60
2018-07-21T03:45:54.123Z,97.50
2018-07-21T03:48:23.226Z,97.40
2018-07-21T03:50:52.341Z,97.70
2018-07-21T03:53:21.511Z,97.30
2018-07-21T03:55:56.963Z,97.20
2018-07-21T03:58:26.007Z,97.10
2018-07-21T04:00:55.202Z,96.70
2018-07-21T04:03:24.195Z,96.50
2018-07-21T04:05:53.355Z,96.70
2018-07-21T04:08:26.322Z,96.70
2018-07-21T04:10:55.766Z,96.70
2018-07-21T04:13:24.841Z,96.70
2018-07-21T04:15:53.947Z,96.90
2018-07-21T04:18:23.075Z,96.90
2018-07-21T04:20:52.564Z,96.80
2018-07-21T04:23:21.724Z,96.50
2018-07-21T04:25:50.817Z,96.40
2018-07-21T04:28:19.971Z,96.40
2018-07-21T04:30:49.073Z,96.10
2018-07-21T04:33:18.266Z,96.30
2018-07-21T04:35:47.582Z,96.30
2018-07-21T04:38:17.267Z,96.00
2018-07-21T04:40:46.600Z,95.70
2018-07-21T04:43:15.956Z,95.20
2018-07-21T04:45:45.111Z,95.30
2018-07-21T04:48:14.129Z,95.30
2018-07-21T04:50:43.139Z,95.20
2018-07-21T04:53:12.509Z,95.10
2018-07-21T04:55:41.651Z,94.70
2018-07-21T04:58:10.829Z,94.80
2018-07-21T05:00:46.317Z,94.60
2018-07-21T05:03:15.401Z,94.40
2018-07-21T05:05:44.535Z,94.20
2018-07-21T05:08:13.569Z,94.20
2018-07-21T05:13:12.359Z,93.90
2018-07-21T05:15:41.395Z,93.90
2018-07-21T05:18:10.570Z,93.80
2018-07-21T05:20:39.627Z,94.00
2018-07-21T05:23:08.684Z,93.70
2018-07-21T05:25:37.744Z,93.40
2018-07-21T05:28:07.037Z,93.50
2018-07-21T05:30:36.359Z,93.40
2018-07-21T05:33:05.474Z,93.10
2018-07-21T05:35:34.840Z,93.10
2018-07-21T05:38:03.899Z,92.90
2018-07-21T05:40:33.015Z,92.80
2018-07-21T05:43:02.348Z,92.60
2018-07-21T05:45:31.547Z,92.50
2018-07-21T05:48:00.658Z,92.30
2018-07-21T05:50:29.598Z,92.10
2018-07-21T05:52:58.591Z,91.90
2018-07-21T05:55:27.815Z,91.80
2018-07-21T05:57:57.002Z,91.70
2018-07-21T06:00:26.102Z,91.90
2018-07-21T06:02:55.195Z,91.50
2018-07-21T06:07:53.207Z,91.00
2018-07-21T06:10:22.292Z,91.00
2018-07-21T06:12:51.475Z,91.00
2018-07-21T06:15:20.768Z,91.00
2018-07-21T06:17:49.843Z,91.00
2018-07-21T06:20:18.911Z,90.70
2018-07-21T06:22:48.224Z,90.40
2018-07-21T06:25:17.468Z,89.70
2018-07-21T06:27:46.665Z,89.10
2018-07-21T06:30:15.672Z,88.70
2018-07-21T06:32:45.223Z,87.20
2018-07-21T06:35:14.285Z,86.40
2018-07-21T06:37:43.603Z,85.20
2018-07-21T06:40:12.616Z,84.80
2018-07-21T06:42:41.721Z,84.80
2018-07-21T06:45:10.809Z,84.80
2018-07-21T06:47:40.022Z,84.20
2018-07-21T06:50:09.407Z,83.90
2018-07-21T06:52:38.516Z,83.80
2018-07-21T06:55:11.090Z,82.50
2018-07-21T07:00:10.190Z,80.10
2018-07-21T07:02:39.815Z,79.60
2018-07-21T07:05:09.851Z,79.00
2018-07-21T07:07:39.022Z,78.90
2018-07-21T07:10:08.246Z,77.30
2018-07-21T07:12:37.195Z,77.30
2018-07-21T07:15:06.147Z,76.70
2018-07-21T07:17:35.094Z,76.60
2018-07-21T07:20:04.555Z,75.20
2018-07-21T07:22:33.650Z,73.70
2018-07-21T07:25:02.660Z,73.80
2018-07-21T07:27:31.656Z,74.00
2018-07-21T07:30:00.594Z,73.20
2018-07-21T07:32:29.667Z,73.00
2018-07-21T07:37:27.396Z,72.10
2018-07-21T07:39:56.347Z,72.80
2018-07-21T07:42:25.288Z,72.90
2018-07-21T07:44:54.222Z,73.50
2018-07-21T07:47:24.038Z,73.70
2018-07-21T07:49:52.995Z,73.90
2018-07-21T07:52:21.959Z,73.40
2018-07-21T07:54:50.943Z,73.20
2018-07-21T07:57:19.909Z,73.10
2018-07-21T07:59:48.875Z,73.40
2018-07-21T08:02:17.855Z,73.30
2018-07-21T08:04:46.835Z,73.50
2018-07-21T08:07:15.798Z,73.10
2018-07-21T08:09:44.823Z,73.20
2018-07-21T08:12:13.997Z,72.20
2018-07-21T08:14:43.613Z,72.10
2018-07-21T08:17:12.638Z,72.10
2018-07-21T08:19:41.622Z,71.30
2018-07-21T08:22:10.635Z,72.10
2018-07-21T08:24:39.640Z,71.80
2018-07-21T08:27:08.627Z,71.40
2018-07-21T08:29:37.574Z,70.80
2018-07-21T08:32:06.675Z,69.10
2018-07-21T08:34:35.692Z,69.50
2018-07-21T08:37:05.504Z,69.30
2018-07-21T08:39:34.502Z,69.70
2018-07-21T08:42:03.471Z,68.50
2018-07-21T08:44:32.598Z,68.30
2018-07-21T08:47:01.583Z,68.10
2018-07-21T08:49:30.590Z,67.10
2018-07-21T08:51:59.572Z,66.80
2018-07-21T08:54:28.540Z,67.10
2018-07-21T08:56:57.559Z,67.10
2018-07-21T08:59:26.521Z,66.40
2018-07-21T09:01:55.467Z,66.60
2018-07-21T09:04:24.580Z,65.60
2018-07-21T09:06:53.995Z,65.00
2018-07-21T09:09:23.071Z,64.80
2018-07-21T09:11:52.035Z,63.80
2018-07-21T09:14:21.028Z,62.70
2018-07-21T09:16:50.016Z,61.90
2018-07-21T09:19:18.980Z,62.00
2018-07-21T09:21:47.938Z,61.40
2018-07-21T09:24:16.891Z,61.20
2018-07-21T09:26:45.861Z,61.30
2018-07-21T09:29:14.873Z,61.20
2018-07-21T09:31:43.840Z,61.60
2018-07-21T09:34:12.853Z,59.90
2018-07-21T09:36:41.931Z,59.60
2018-07-21T09:39:11.724Z,59.40
2018-07-21T09:41:41.800Z,58.90
2018-07-21T09:44:10.819Z,59.20
2018-07-21T09:46:39.817Z,58.70
2018-07-21T09:49:09.109Z,58.30
2018-07-21T09:51:38.232Z,58.40
2018-07-21T09:54:07.287Z,57.40
2018-07-21T09:56:36.300Z,56.90
2018-07-21T09:59:05.276Z,56.60
2018-07-21T10:01:34.267Z,56.40
2018-07-21T10:04:03.224Z,55.70
2018-07-21T10:06:32.198Z,56.20
2018-07-21T10:09:01.175Z,56.20
2018-07-21T10:11:30.166Z,55.20
2018-07-21T10:13:59.150Z,55.10
2018-07-21T10:16:28.078Z,55.30
2018-07-21T10:18:57.060Z,54.90
2018-07-21T10:21:27.104Z,55.10
2018-07-21T10:24:00.948Z,54.90
2018-07-21T10:26:35.491Z,54.80
2018-07-21T10:29:08.060Z,54.70
2018-07-21T10:31:37.427Z,54.00
2018-07-21T10:34:07.583Z,53.70
2018-07-21T10:36:36.847Z,53.70
2018-07-21T10:39:08.293Z,54.00
2018-07-21T10:41:37.423Z,53.80
2018-07-21T10:44:06.395Z,54.20
2018-07-21T10:46:35.994Z,52.90
2018-07-21T10:49:06.025Z,53.00
2018-07-21T10:54:04.367Z,53.10
2018-07-21T10:56:33.547Z,53.60
2018-07-21T10:59:02.847Z,52.80
2018-07-21T11:01:31.994Z,52.90
2018-07-21T11:04:00.959Z,53.00
2018-07-21T11:06:29.926Z,52.80
2018-07-21T11:08:58.875Z,52.90
2018-07-21T11:11:28.331Z,52.90
2018-07-21T11:13:57.331Z,52.40
2018-07-21T11:16:26.349Z,52.40
2018-07-21T11:18:55.310Z,52.40
2018-07-21T11:21:24.299Z,53.00
2018-07-21T11:23:53.282Z,51.80
2018-07-21T11:26:23.258Z,51.50
2018-07-21T11:31:22.815Z,52.50
2018-07-21T11:33:51.855Z,50.70
2018-07-21T11:36:21.184Z,50.50
2018-07-21T11:38:51.213Z,50.60
2018-07-21T11:41:22.414Z,50.00
2018-07-21T11:43:51.798Z,50.20
2018-07-21T11:46:20.937Z,49.80
2018-07-21T11:48:51.957Z,49.90
2018-07-21T11:51:21.196Z,49.40
2018-07-21T11:53:50.535Z,48.90
2018-07-21T11:56:19.523Z,48.20
2018-07-21T11:58:48.565Z,47.50
2018-07-21T12:01:17.711Z,47.20
2018-07-21T12:03:46.717Z,47.40
2018-07-21T12:06:15.928Z,47.10
2018-07-21T12:08:45.208Z,46.90
2018-07-21T12:11:14.364Z,46.60
2018-07-21T12:13:43.627Z,46.80
2018-07-21T12:16:12.811Z,46.40
2018-07-21T12:18:43.841Z,46.40
2018-07-21T12:21:13.559Z,46.50
2018-07-21T12:23:43.735Z,46.50
2018-07-21T12:26:13.088Z,46.50
2018-07-21T12:28:42.081Z,46.30
2018-07-21T12:31:11.805Z,46.10
2018-07-21T12:33:40.881Z,45.60
2018-07-21T12:36:10.040Z,45.80
2018-07-21T12:38:41.073Z,45.30
2018-07-21T12:41:10.065Z,45.10
2018-07-21T12:43:39.048Z,45.30
2018-07-21T12:46:08.017Z,44.20
2018-07-21T12:48:37.250Z,43.80
2018-07-21T12:53:36.046Z,43.70
2018-07-21T12:56:05.409Z,43.80
2018-07-21T12:58:34.754Z,43.60
2018-07-21T13:01:04.511Z,44.20
2018-07-21T13:03:33.752Z,44.10
2018-07-21T13:06:03.031Z,44.30
2018-07-21T13:08:33.196Z,44.50
2018-07-21T13:11:02.338Z,43.50
2018-07-21T13:13:31.857Z,43.30
2018-07-21T13:16:00.984Z,43.70
2018-07-21T13:18:30.218Z,43.10
2018-07-21T13:21:00.395Z,43.40
2018-07-21T13:23:29.564Z,43.30
2018-07-21T13:25:58.590Z,42.70
2018-07-21T13:28:28.003Z,42.40
2018-07-21T13:30:57.567Z,42.60
2018-07-21T13:33:26.898Z,43.20
2018-07-21T13:38:24.626Z,43.30
2018-07-21T13:40:53.571Z,42.70
2018-07-21T13:43:22.818Z,42.30
2018-07-21T13:45:52.050Z,42.40
2018-07-21T13:48:21.212Z,42.40
2018-07-21T13:50:50.590Z,42.30
2018-07-21T13:53:19.716Z,41.80
2018-07-21T13:55:48.789Z,42.00
2018-07-21T13:58:17.943Z,41.60
2018-07-21T14:00:47.052Z,41.90
2018-07-21T14:03:16.131Z,41.50
2018-07-21T14:05:45.178Z,41.20
2018-07-21T14:08:14.765Z,41.30
2018-07-21T14:10:44.172Z,41.60
2018-07-21T14:15:42.544Z,41.50
2018-07-21T14:20:40.548Z,40.90
2018-07-21T14:23:09.956Z,41.30
2018-07-21T14:25:38.903Z,41.40
2018-07-21T14:28:07.903Z,41.50
2018-07-21T14:30:36.835Z,41.30
2018-07-21T14:33:06.235Z,41.40
2018-07-21T14:35:35.251Z,41.60
2018-07-21T14:38:04.561Z,41.90
2018-07-21T14:40:33.717Z,41.80
2018-07-21T14:43:03.039Z,41.40
2018-07-21T14:45:32.140Z,41.50
2018-07-21T14:48:01.346Z,41.10
2018-07-21T14:50:30.830Z,40.40
2018-07-21T14:55:29.474Z,40.10
2018-07-21T14:57:59.247Z,40.00
2018-07-21T15:00:28.431Z,39.90
2018-07-21T15:02:57.431Z,39.40
2018-07-21T15:05:26.455Z,39.40
2018-07-21T15:07:55.679Z,39.40
2018-07-21T15:10:24.656Z,39.40
2018-07-21T15:12:53.678Z,39.60
2018-07-21T15:15:22.890Z,39.00
2018-07-21T15:17:51.881Z,38.80
2018-07-21T15:20:21.153Z,39.40
2018-07-21T15:22:50.123Z,39.30
2018-07-21T15:25:19.096Z,38.90
2018-07-21T15:27:48.584Z,39.40
2018-07-21T15:30:17.679Z,40.10
2018-07-21T15:32:47.174Z,40.20
2018-07-21T15:35:16.534Z,41.10
2018-07-21T15:37:45.560Z,41.00
2018-07-21T15:40:15.447Z,41.00
2018-07-21T15:42:44.487Z,41.20
2018-07-21T15:45:13.771Z,41.30
2018-07-21T15:47:42.902Z,41.40
2018-07-21T15:50:12.127Z,41.40
2018-07-21T15:52:41.246Z,41.60
2018-07-21T15:55:10.707Z,41.90
2018-07-21T15:57:39.931Z,42.30
2018-07-21T16:00:09.095Z,42.60
2018-07-21T16:02:38.275Z,42.60
2018-07-21T16:05:07.842Z,42.70
2018-07-21T16:07:37.005Z,42.90
2018-07-21T16:10:06.223Z,42.80
2018-07-21T16:12:35.297Z,43.10
2018-07-21T16:15:04.501Z,42.60
2018-07-21T16:17:33.791Z,42.50
2018-07-21T16:20:02.863Z,42.70
2018-07-21T16:22:32.314Z,42.90
2018-07-21T16:25:01.920Z,43.00
2018-07-21T16:27:31.120Z,43.10
2018-07-21T16:30:00.396Z,43.30
2018-07-21T16:32:29.682Z,43.40
2018-07-21T16:34:59.101Z,43.30
2018-07-21T16:37:28.231Z,43.60
2018-07-21T16:39:57.683Z,43.50
2018-07-21T16:42:26.730Z,43.60
2018-07-21T16:44:55.704Z,43.30
2018-07-21T16:47:24.673Z,43.00
2018-07-21T16:49:53.647Z,42.50
2018-07-21T16:54:51.644Z,41.60
2018-07-21T16:57:20.731Z,41.20
2018-07-21T17:02:19.063Z,41.20
2018-07-21T17:04:48.561Z,41.10
2018-07-21T17:07:18.298Z,41.00
2018-07-21T17:09:47.287Z,41.60
2018-07-21T17:12:16.333Z,41.90
2018-07-21T17:14:45.603Z,42.10
2018-07-21T17:19:43.752Z,42.20
2018-07-21T17:22:12.813Z,42.10
2018-07-21T17:24:41.899Z,42.40
2018-07-21T17:27:10.939Z,42.80
2018-07-21T17:29:40.005Z,43.50
2018-07-21T17:32:08.935Z,43.70
2018-07-21T17:34:38.122Z,44.10
2018-07-21T17:37:07.130Z,44.50
2018-07-21T17:39:36.136Z,45.10
2018-07-21T17:42:05.336Z,45.50
2018-07-21T17:44:34.291Z,45.90
2018-07-21T17:47:04.155Z,46.30
2018-07-21T17:49:33.188Z,46.80
2018-07-21T17:52:02.920Z,47.10
2018-07-21T17:54:31.948Z,47.60
2018-07-21T17:57:00.980Z,47.90
2018-07-21T17:59:29.954Z,48.40
2018-07-21T18:01:59.997Z,48.80
2018-07-21T18:04:28.987Z,49.10
2018-07-21T18:06:57.989Z,49.50
2018-07-21T18:09:26.953Z,49.80
2018-07-21T18:11:55.920Z,49.90
2018-07-21T18:14:24.891Z,50.10
2018-07-21T18:16:53.845Z,50.30
2018-07-21T18:19:22.867Z,50.60
2018-07-21T18:21:51.868Z,50.90
2018-07-21T18:24:20.852Z,51.10
2018-07-21T18:26:50.052Z,51.40
2018-07-21T18:29:19.072Z,51.40
2018-07-21T18:31:48.124Z,51.50
2018-07-21T18:34:17.229Z,51.70
2018-07-21T18:36:46.268Z,51.60
2018-07-21T18:39:15.371Z,51.90
2018-07-21T18:41:44.311Z,51.80
2018-07-21T18:44:13.295Z,52.10
2018-07-21T18:49:10.924Z,52.60
2018-07-21T18:51:39.887Z,52.90
2018-07-21T18:54:08.886Z,53.10
2018-07-21T18:56:37.834Z,53.40
2018-07-21T18:59:06.811Z,53.50
2018-07-21T19:01:35.783Z,53.90
2018-07-21T19:04:04.981Z,54.10
2018-07-21T19:11:33.683Z,54.60
2018-07-21T19:14:02.703Z,55.00
2018-07-21T19:16:38.124Z,55.30
2018-07-21T19:19:07.118Z,55.60
2018-07-21T19:21:36.180Z,55.70
2018-07-21T19:24:05.215Z,56.00
2018-07-21T19:26:39.603Z,56.30
2018-07-21T19:29:08.603Z,56.60
2018-07-21T19:31:37.558Z,56.90
2018-07-21T19:34:06.596Z,57.10
2018-07-21T19:36:35.599Z,57.60
2018-07-21T19:39:06.284Z,58.10
2018-07-21T19:42:06.639Z,58.50
2018-07-21T19:44:35.839Z,58.80
2018-07-21T19:47:04.864Z,59.50
2018-07-21T19:49:33.824Z,60.40
2018-07-21T19:52:03.091Z,60.80
2018-07-21T19:54:32.088Z,61.40
2018-07-21T19:57:01.150Z,62.30
2018-07-21T19:59:30.039Z,63.00
2018-07-21T20:01:58.988Z,64.40
2018-07-21T20:04:28.044Z,65.60
2018-07-21T20:06:57.082Z,66.10
2018-07-21T20:09:26.240Z,66.50
2018-07-21T20:11:55.191Z,68.60
2018-07-21T20:14:24.230Z,68.00
2018-07-21T20:16:53.221Z,69.70
2018-07-21T20:19:22.227Z,70.00
2018-07-21T20:21:51.171Z,70.80
2018-07-21T20:24:20.143Z,71.70
2018-07-21T20:26:49.306Z,72.70
2018-07-21T20:29:18.353Z,73.80
2018-07-21T20:31:47.336Z,74.90
2018-07-21T20:34:16.323Z,76.20
2018-07-21T20:36:45.348Z,77.50
2018-07-21T20:39:14.393Z,78.80
2018-07-21T20:41:43.334Z,79.70
2018-07-21T20:44:12.346Z,80.70
2018-07-21T20:46:41.296Z,81.80
2018-07-21T20:49:10.346Z,82.60
2018-07-21T20:51:39.427Z,83.70
2018-07-21T20:54:08.353Z,84.70
2018-07-21T20:56:37.322Z,85.70
2018-07-21T20:59:06.352Z,86.70
2018-07-21T21:01:35.374Z,88.60
2018-07-21T21:04:04.372Z,88.50
2018-07-21T21:06:33.595Z,89.70
2018-07-21T21:09:02.732Z,90.10
2018-07-21T21:11:31.719Z,90.50
2018-07-21T21:14:00.752Z,90.70
2018-07-21T21:16:29.742Z,91.10
2018-07-21T21:18:59.039Z,91.50
2018-07-21T21:21:28.307Z,91.90
2018-07-21T21:23:57.444Z,92.30
2018-07-21T21:26:26.475Z,92.50
2018-07-21T21:28:55.565Z,92.90
2018-07-21T21:31:24.658Z,93.10
2018-07-21T21:33:54.209Z,93.20
2018-07-21T21:36:23.527Z,93.70
2018-07-21T21:38:52.593Z,95.50
2018-07-21T21:41:21.997Z,95.10
2018-07-21T21:43:51.067Z,95.10
2018-07-21T21:46:20.203Z,94.80
2018-07-21T21:48:49.304Z,95.20
2018-07-21T21:51:18.656Z,94.50
2018-07-21T21:53:47.768Z,94.40
2018-07-21T21:56:17.283Z,94.50
2018-07-21T21:58:46.639Z,94.50
2018-07-21T22:01:15.884Z,94.70
2018-07-21T22:03:45.572Z,94.90
2018-07-21T22:06:15.223Z,94.80
2018-07-21T22:08:44.503Z,95.00
2018-07-21T22:11:14.108Z,94.90
2018-07-21T22:13:43.431Z,95.70
2018-07-21T22:16:13.464Z,95.60
2018-07-21T22:18:42.746Z,95.90
2018-07-21T22:21:12.041Z,95.90
2018-07-21T22:23:41.366Z,95.80
2018-07-21T22:26:10.766Z,95.80
2018-07-21T22:28:39.887Z,95.90
2018-07-21T22:31:09.741Z,95.90
2018-07-21T22:33:39.331Z,96.10
2018-07-21T22:36:08.650Z,96.20
2018-07-21T22:38:37.920Z,97.10
2018-07-21T22:41:07.585Z,97.20
2018-07-21T22:43:37.011Z,96.60
2018-07-21T22:46:06.470Z,96.50
2018-07-21T22:48:36.402Z,96.20
2018-07-21T22:51:05.815Z,96.20
2018-07-21T22:53:35.207Z,96.20
2018-07-21T22:56:04.508Z,96.40
2018-07-21T22:58:33.814Z,96.70
2018-07-21T23:01:03.382Z,96.50
2018-07-21T23:03:32.540Z,96.80
2018-07-21T23:06:01.965Z,97.00
2018-07-21T23:11:00.163Z,97.30
2018-07-21T23:13:29.295Z,97.30
2018-07-21T23:15:58.439Z,97.40
2018-07-21T23:18:27.481Z,97.30
2018-07-21T23:20:56.568Z,97.60
2018-07-21T23:23:25.984Z,97.70
2018-07-21T23:25:54.981Z,97.90
2018-07-21T23:28:24.238Z,97.70
2018-07-21T23:30:53.668Z,97.80
2018-07-21T23:33:23.084Z,97.60
2018-07-21T23:35:52.136Z,97.50
2018-07-21T23:38:21.382Z,97.70
2018-07-21T23:40:50.595Z,97.70
2018-07-21T23:43:20.060Z,98.00
2018-07-21T23:45:49.583Z,97.80
2018-07-21T23:48:18.695Z,97.80
2018-07-21T23:50:47.981Z,97.80
2018-07-21T23:53:17.071Z,97.90
2018-07-21T23:55:46.318Z,97.90
2018-07-21T23:58:15.382Z,97.90
